Terminal Aerodrome Forecast
Issued by NWS Sioux Falls, SD

Home | Current Version | Previous Version | Text Only | Print | Product List | Glossary On
Versions: 1 2 3 4 5 6 7 8 9 10 11 12 13 14 15 16 17 18 19 20 21 22 23 24 25 26 27 28 29 30 31 32 33 34
211
FTUS43 KFSD 181127
TAFHON
TAF
KHON 181127Z 1812/1912 08011G20KT 3/4SM -SN SCT006 OVC010
      TEMPO 1813/1816 1/2SM SN
     FM181900 04014KT 3/4SM -SN BLSN OVC010
     FM182300 02012KT P6SM VCSH OVC020
     FM190300 01010KT P6SM BKN020
     FM191100 36005KT P6SM SCT020=

USA.gov is the U.S. government's official web portal to all federal, state and local government web resources and services.